sensor_id;sensor_type;location;lat;lon;timestamp;pressure;altitude;pressure_sealevel;temperature;humidity
62942;BME280;49042;47.318;19.874;2022-11-11T00:01:59;101878.00;;;5.76;100.00
62942;BME280;49042;47.318;19.874;2022-11-11T00:05:00;101877.19;;;5.65;100.00
62942;BME280;49042;47.318;19.874;2022-11-11T00:08:02;101886.28;;;5.48;100.00
62942;BME280;49042;47.318;19.874;2022-11-11T00:11:04;101880.25;;;5.60;100.00
62942;BME280;49042;47.318;19.874;2022-11-11T00:14:06;101883.16;;;5.52;100.00
62942;BME280;49042;47.318;19.874;2022-11-11T00:17:10;101885.50;;;5.49;100.00
62942;BME280;49042;47.318;19.874;2022-11-11T00:20:31;101890.47;;;5.46;100.00
62942;BME280;49042;47.318;19.874;2022-11-11T00:23:51;101892.81;;;5.43;100.00
62942;BME280;49042;47.318;19.874;2022-11-11T00:27:12;101890.16;;;5.53;100.00
62942;BME280;49042;47.318;19.874;2022-11-11T00:30:13;101894.19;;;5.50;100.00
62942;BME280;49042;47.318;19.874;2022-11-11T00:33:15;101905.66;;;5.53;100.00
62942;BME280;49042;47.318;19.874;2022-11-11T00:36:17;101908.34;;;5.43;100.00
62942;BME280;49042;47.318;19.874;2022-11-11T00:39:19;101901.25;;;5.40;100.00
62942;BME280;49042;47.318;19.874;2022-11-11T00:42:21;101907.00;;;5.48;100.00
62942;BME280;49042;47.318;19.874;2022-11-11T00:45:22;101911.84;;;5.55;100.00
62942;BME280;49042;47.318;19.874;2022-11-11T00:48:24;101903.53;;;5.60;100.00
62942;BME280;49042;47.318;19.874;2022-11-11T00:51:44;101903.22;;;5.67;100.00
62942;BME280;49042;47.318;19.874;2022-11-11T00:54:46;101898.03;;;5.67;100.00
62942;BME280;49042;47.318;19.874;2022-11-11T00:57:48;101912.13;;;5.71;100.00
62942;BME280;49042;47.318;19.874;2022-11-11T01:00:49;101908.97;;;5.75;100.00
62942;BME280;49042;47.318;19.874;2022-11-11T01:03:54;101917.66;;;5.75;100.00
62942;BME280;49042;47.318;19.874;2022-11-11T01:06:55;101921.25;;;5.77;100.00
62942;BME280;49042;47.318;19.874;2022-11-11T01:09:57;101915.59;;;5.83;100.00
62942;BME280;49042;47.318;19.874;2022-11-11T01:12:59;101918.56;;;6.00;100.00
62942;BME280;49042;47.318;19.874;2022-11-11T01:16:17;101916.22;;;6.03;100.00
62942;BME280;49042;47.318;19.874;2022-11-11T01:19:19;101915.44;;;6.16;100.00
62942;BME280;49042;47.318;19.874;2022-11-11T01:22:21;101918.81;;;6.27;100.00
62942;BME280;49042;47.318;19.874;2022-11-11T01:25:22;101924.44;;;6.46;100.00
62942;BME280;49042;47.318;19.874;2022-11-11T01:28:24;101923.62;;;6.47;100.00
62942;BME280;49042;47.318;19.874;2022-11-11T01:31:26;101917.87;;;6.51;100.00
62942;BME280;49042;47.318;19.874;2022-11-11T01:34:27;101917.63;;;6.72;100.00
62942;BME280;49042;47.318;19.874;2022-11-11T01:37:31;101925.16;;;6.81;100.00
62942;BME280;49042;47.318;19.874;2022-11-11T01:40:39;101918.09;;;6.66;100.00
62942;BME280;49042;47.318;19.874;2022-11-11T01:43:41;101914.38;;;6.62;100.00
62942;BME280;49042;47.318;19.874;2022-11-11T01:46:44;101919.13;;;6.56;100.00
62942;BME280;49042;47.318;19.874;2022-11-11T01:49:49;101916.66;;;6.46;100.00
62942;BME280;49042;47.318;19.874;2022-11-11T01:52:55;101915.09;;;6.24;100.00
62942;BME280;49042;47.318;19.874;2022-11-11T01:55:57;101908.13;;;6.23;100.00
62942;BME280;49042;47.318;19.874;2022-11-11T01:59:01;101912.41;;;6.10;100.00
62942;BME280;49042;47.318;19.874;2022-11-11T02:02:05;101916.66;;;5.85;100.00
62942;BME280;49042;47.318;19.874;2022-11-11T02:05:11;101919.91;;;5.83;100.00
62942;BME280;49042;47.318;19.874;2022-11-11T02:08:32;101921.37;;;5.79;100.00
62942;BME280;49042;47.318;19.874;2022-11-11T02:11:35;101927.31;;;5.78;100.00
62942;BME280;49042;47.318;19.874;2022-11-11T02:14:58;101932.50;;;5.78;100.00
62942;BME280;49042;47.318;19.874;2022-11-11T02:18:01;101930.44;;;6.20;100.00
62942;BME280;49042;47.318;19.874;2022-11-11T02:21:02;101925.88;;;5.94;100.00
62942;BME280;49042;47.318;19.874;2022-11-11T02:24:11;101925.53;;;6.01;100.00
62942;BME280;49042;47.318;19.874;2022-11-11T02:27:16;101923.44;;;6.07;100.00
62942;BME280;49042;47.318;19.874;2022-11-11T02:30:19;101919.03;;;6.06;100.00
62942;BME280;49042;47.318;19.874;2022-11-11T02:33:21;101921.87;;;6.09;100.00
62942;BME280;49042;47.318;19.874;2022-11-11T02:36:24;101925.41;;;5.87;100.00
62942;BME280;49042;47.318;19.874;2022-11-11T02:39:26;101925.44;;;5.99;100.00
62942;BME280;49042;47.318;19.874;2022-11-11T02:42:47;101915.78;;;6.09;100.00
62942;BME280;49042;47.318;19.874;2022-11-11T02:45:49;101923.72;;;5.88;100.00
62942;BME280;49042;47.318;19.874;2022-11-11T02:48:51;101932.06;;;6.08;100.00
62942;BME280;49042;47.318;19.874;2022-11-11T02:51:52;101935.25;;;6.04;100.00
62942;BME280;49042;47.318;19.874;2022-11-11T02:54:54;101934.34;;;6.03;100.00
62942;BME280;49042;47.318;19.874;2022-11-11T02:57:55;101942.09;;;5.91;100.00
62942;BME280;49042;47.318;19.874;2022-11-11T03:00:57;101937.47;;;5.87;100.00
62942;BME280;49042;47.318;19.874;2022-11-11T03:03:59;101939.94;;;5.97;100.00
62942;BME280;49042;47.318;19.874;2022-11-11T03:07:00;101944.25;;;5.97;100.00
62942;BME280;49042;47.318;19.874;2022-11-11T03:10:02;101947.97;;;6.00;100.00
62942;BME280;49042;47.318;19.874;2022-11-11T03:13:04;101953.44;;;5.81;100.00
62942;BME280;49042;47.318;19.874;2022-11-11T03:16:05;101955.59;;;5.87;100.00
62942;BME280;49042;47.318;19.874;2022-11-11T03:19:27;101958.16;;;5.75;100.00
62942;BME280;49042;47.318;19.874;2022-11-11T03:22:28;101956.69;;;5.66;100.00
62942;BME280;49042;47.318;19.874;2022-11-11T03:25:50;101959.56;;;5.47;100.00
62942;BME280;49042;47.318;19.874;2022-11-11T03:28:58;101958.59;;;5.34;100.00
62942;BME280;49042;47.318;19.874;2022-11-11T03:31:59;101961.47;;;5.50;100.00
62942;BME280;49042;47.318;19.874;2022-11-11T03:35:01;101967.16;;;5.33;100.00
62942;BME280;49042;47.318;19.874;2022-11-11T03:38:03;101963.31;;;5.28;100.00
62942;BME280;49042;47.318;19.874;2022-11-11T03:41:24;101962.75;;;5.10;100.00
62942;BME280;49042;47.318;19.874;2022-11-11T03:44:25;101962.22;;;5.14;100.00
62942;BME280;49042;47.318;19.874;2022-11-11T03:47:28;101960.62;;;5.04;100.00
62942;BME280;49042;47.318;19.874;2022-11-11T03:50:30;101979.13;;;4.98;100.00
62942;BME280;49042;47.318;19.874;2022-11-11T03:53:32;101986.53;;;5.16;100.00
62942;BME280;49042;47.318;19.874;2022-11-11T03:56:33;101991.88;;;5.07;100.00
62942;BME280;49042;47.318;19.874;2022-11-11T03:59:34;101984.19;;;4.97;100.00
62942;BME280;49042;47.318;19.874;2022-11-11T04:02:36;101986.25;;;5.01;100.00
62942;BME280;49042;47.318;19.874;2022-11-11T04:05:56;101988.75;;;5.11;100.00
62942;BME280;49042;47.318;19.874;2022-11-11T04:09:16;101997.22;;;4.98;100.00
62942;BME280;49042;47.318;19.874;2022-11-11T04:12:47;102000.06;;;5.01;100.00
62942;BME280;49042;47.318;19.874;2022-11-11T04:16:08;101998.63;;;4.72;100.00
62942;BME280;49042;47.318;19.874;2022-11-11T04:19:10;101999.41;;;4.71;100.00
62942;BME280;49042;47.318;19.874;2022-11-11T04:22:30;102004.53;;;4.81;100.00
62942;BME280;49042;47.318;19.874;2022-11-11T04:25:31;101999.59;;;4.85;100.00
62942;BME280;49042;47.318;19.874;2022-11-11T04:28:53;101998.91;;;4.65;100.00
62942;BME280;49042;47.318;19.874;2022-11-11T04:32:20;101997.25;;;4.65;100.00
62942;BME280;49042;47.318;19.874;2022-11-11T04:35:40;102003.66;;;4.70;100.00
62942;BME280;49042;47.318;19.874;2022-11-11T04:38:42;102016.72;;;4.72;100.00
62942;BME280;49042;47.318;19.874;2022-11-11T04:42:02;102021.97;;;4.84;100.00
62942;BME280;49042;47.318;19.874;2022-11-11T04:45:09;102021.75;;;4.70;100.00
62942;BME280;49042;47.318;19.874;2022-11-11T04:48:30;102023.19;;;4.67;100.00
62942;BME280;49042;47.318;19.874;2022-11-11T04:51:32;102025.31;;;4.93;100.00
62942;BME280;49042;47.318;19.874;2022-11-11T04:54:52;102035.47;;;4.80;100.00
62942;BME280;49042;47.318;19.874;2022-11-11T04:58:14;102033.63;;;4.79;100.00
62942;BME280;49042;47.318;19.874;2022-11-11T05:01:16;102036.53;;;5.05;100.00
62942;BME280;49042;47.318;19.874;2022-11-11T05:04:37;102040.84;;;5.16;100.00
62942;BME280;49042;47.318;19.874;2022-11-11T05:07:39;102038.00;;;5.13;100.00
62942;BME280;49042;47.318;19.874;2022-11-11T05:10:59;102039.53;;;5.21;100.00
62942;BME280;49042;47.318;19.874;2022-11-11T05:14:02;102041.88;;;5.63;100.00
62942;BME280;49042;47.318;19.874;2022-11-11T05:17:22;102047.66;;;5.49;100.00
62942;BME280;49042;47.318;19.874;2022-11-11T05:20:46;102048.03;;;5.53;100.00
62942;BME280;49042;47.318;19.874;2022-11-11T05:24:07;102049.41;;;5.15;100.00
62942;BME280;49042;47.318;19.874;2022-11-11T05:27:27;102051.81;;;5.24;100.00
62942;BME280;49042;47.318;19.874;2022-11-11T05:30:29;102052.28;;;5.30;100.00
62942;BME280;49042;47.318;19.874;2022-11-11T05:33:30;102055.34;;;5.14;100.00
62942;BME280;49042;47.318;19.874;2022-11-11T05:36:31;102054.63;;;5.05;100.00
62942;BME280;49042;47.318;19.874;2022-11-11T05:39:34;102063.06;;;5.24;100.00
62942;BME280;49042;47.318;19.874;2022-11-11T05:42:39;102069.91;;;5.01;100.00
62942;BME280;49042;47.318;19.874;2022-11-11T05:45:49;102074.59;;;4.85;100.00
62942;BME280;49042;47.318;19.874;2022-11-11T05:48:51;102079.38;;;4.90;100.00
62942;BME280;49042;47.318;19.874;2022-11-11T05:52:21;102078.94;;;4.96;100.00
62942;BME280;49042;47.318;19.874;2022-11-11T05:55:23;102082.19;;;4.93;100.00
62942;BME280;49042;47.318;19.874;2022-11-11T05:58:24;102085.13;;;4.98;100.00
62942;BME280;49042;47.318;19.874;2022-11-11T06:01:26;102083.44;;;5.09;100.00
62942;BME280;49042;47.318;19.874;2022-11-11T06:04:27;102082.50;;;5.42;100.00
62942;BME280;49042;47.318;19.874;2022-11-11T06:07:29;102088.16;;;5.25;100.00
62942;BME280;49042;47.318;19.874;2022-11-11T06:10:31;102086.97;;;5.32;100.00
62942;BME280;49042;47.318;19.874;2022-11-11T06:13:33;102092.13;;;4.99;100.00
62942;BME280;49042;47.318;19.874;2022-11-11T06:16:34;102091.06;;;5.08;100.00
62942;BME280;49042;47.318;19.874;2022-11-11T06:19:36;102090.75;;;5.25;100.00
62942;BME280;49042;47.318;19.874;2022-11-11T06:22:37;102089.84;;;5.25;100.00
62942;BME280;49042;47.318;19.874;2022-11-11T06:25:57;102088.44;;;5.18;100.00
62942;BME280;49042;47.318;19.874;2022-11-11T06:29:14;102095.44;;;5.19;100.00
62942;BME280;49042;47.318;19.874;2022-11-11T06:32:15;102095.13;;;5.27;100.00
62942;BME280;49042;47.318;19.874;2022-11-11T06:35:17;102099.91;;;5.32;100.00
62942;BME280;49042;47.318;19.874;2022-11-11T06:38:18;102113.22;;;5.27;100.00
62942;BME280;49042;47.318;19.874;2022-11-11T06:41:20;102110.25;;;5.77;100.00
62942;BME280;49042;47.318;19.874;2022-11-11T06:44:24;102109.94;;;6.07;100.00
62942;BME280;49042;47.318;19.874;2022-11-11T06:47:25;102117.56;;;6.06;100.00
62942;BME280;49042;47.318;19.874;2022-11-11T06:50:27;102119.75;;;6.46;100.00
62942;BME280;49042;47.318;19.874;2022-11-11T06:53:29;102121.37;;;6.80;100.00
62942;BME280;49042;47.318;19.874;2022-11-11T06:56:31;102113.56;;;7.04;100.00
62942;BME280;49042;47.318;19.874;2022-11-11T06:59:32;102119.06;;;7.21;100.00
62942;BME280;49042;47.318;19.874;2022-11-11T07:02:33;102118.03;;;7.43;100.00
62942;BME280;49042;47.318;19.874;2022-11-11T07:05:35;102113.38;;;7.89;100.00
62942;BME280;49042;47.318;19.874;2022-11-11T07:08:36;102112.56;;;8.55;99.87
62942;BME280;49042;47.318;19.874;2022-11-11T07:11:38;102123.72;;;8.93;95.02
62942;BME280;49042;47.318;19.874;2022-11-11T07:14:39;102129.31;;;9.13;94.35
62942;BME280;49042;47.318;19.874;2022-11-11T07:17:41;102127.09;;;10.20;88.07
62942;BME280;49042;47.318;19.874;2022-11-11T07:20:42;102132.09;;;10.60;84.70
62942;BME280;49042;47.318;19.874;2022-11-11T07:23:44;102134.78;;;10.77;83.75
62942;BME280;49042;47.318;19.874;2022-11-11T07:26:45;102136.22;;;10.87;82.41
62942;BME280;49042;47.318;19.874;2022-11-11T07:29:47;102137.59;;;10.65;81.80
62942;BME280;49042;47.318;19.874;2022-11-11T07:32:49;102152.44;;;9.78;87.38
62942;BME280;49042;47.318;19.874;2022-11-11T07:35:51;102151.25;;;9.17;90.36
62942;BME280;49042;47.318;19.874;2022-11-11T07:38:52;102154.75;;;8.90;93.42
62942;BME280;49042;47.318;19.874;2022-11-11T07:41:54;102161.25;;;8.97;94.93
62942;BME280;49042;47.318;19.874;2022-11-11T07:44:56;102166.81;;;9.44;92.02
62942;BME280;49042;47.318;19.874;2022-11-11T07:47:57;102175.25;;;10.11;88.25
62942;BME280;49042;47.318;19.874;2022-11-11T07:50:59;102180.44;;;9.96;88.61
62942;BME280;49042;47.318;19.874;2022-11-11T07:54:00;102183.09;;;9.40;93.86
62942;BME280;49042;47.318;19.874;2022-11-11T07:57:02;102189.69;;;9.35;93.87
62942;BME280;49042;47.318;19.874;2022-11-11T08:00:04;102197.50;;;9.35;95.33
62942;BME280;49042;47.318;19.874;2022-11-11T08:03:06;102198.00;;;9.42;97.11
62942;BME280;49042;47.318;19.874;2022-11-11T08:06:09;102205.19;;;9.60;96.92
62942;BME280;49042;47.318;19.874;2022-11-11T08:09:10;102201.25;;;9.81;93.02
62942;BME280;49042;47.318;19.874;2022-11-11T08:12:12;102184.00;;;10.71;87.39
62942;BME280;49042;47.318;19.874;2022-11-11T08:15:32;102196.88;;;10.83;83.08
62942;BME280;49042;47.318;19.874;2022-11-11T08:18:33;102204.38;;;11.39;80.97
62942;BME280;49042;47.318;19.874;2022-11-11T08:21:35;102210.38;;;11.53;80.69
62942;BME280;49042;47.318;19.874;2022-11-11T08:24:37;102211.84;;;11.48;80.25
62942;BME280;49042;47.318;19.874;2022-11-11T08:27:59;102216.69;;;12.23;77.56
62942;BME280;49042;47.318;19.874;2022-11-11T08:31:01;102214.94;;;12.92;73.09
62942;BME280;49042;47.318;19.874;2022-11-11T08:34:04;102209.00;;;12.42;74.55
62942;BME280;49042;47.318;19.874;2022-11-11T08:37:06;102211.88;;;13.01;73.82
62942;BME280;49042;47.318;19.874;2022-11-11T08:40:08;102220.91;;;12.04;77.08
62942;BME280;49042;47.318;19.874;2022-11-11T08:43:09;102218.09;;;12.33;76.83
62942;BME280;49042;47.318;19.874;2022-11-11T08:46:11;102204.84;;;13.00;74.79
62942;BME280;49042;47.318;19.874;2022-11-11T08:49:12;102210.09;;;13.00;74.82
62942;BME280;49042;47.318;19.874;2022-11-11T08:52:14;102212.09;;;13.05;74.73
62942;BME280;49042;47.318;19.874;2022-11-11T08:55:16;102218.22;;;13.79;72.15
62942;BME280;49042;47.318;19.874;2022-11-11T08:58:18;102202.97;;;14.72;67.74
62942;BME280;49042;47.318;19.874;2022-11-11T09:01:20;102213.09;;;15.73;63.39
62942;BME280;49042;47.318;19.874;2022-11-11T09:04:22;102215.59;;;17.49;56.69
62942;BME280;49042;47.318;19.874;2022-11-11T09:07:44;102216.94;;;17.36;56.27
62942;BME280;49042;47.318;19.874;2022-11-11T09:10:45;102215.50;;;16.64;57.77
62942;BME280;49042;47.318;19.874;2022-11-11T09:13:47;102216.19;;;16.33;59.19
62942;BME280;49042;47.318;19.874;2022-11-11T09:16:48;102218.72;;;15.59;62.18
62942;BME280;49042;47.318;19.874;2022-11-11T09:19:50;102215.81;;;15.07;64.12
62942;BME280;49042;47.318;19.874;2022-11-11T09:22:51;102213.44;;;14.92;65.88
62942;BME280;49042;47.318;19.874;2022-11-11T09:25:56;102202.38;;;15.91;63.37
62942;BME280;49042;47.318;19.874;2022-11-11T09:28:58;102204.62;;;17.08;57.99
62942;BME280;49042;47.318;19.874;2022-11-11T09:32:00;102206.91;;;17.53;56.91
62942;BME280;49042;47.318;19.874;2022-11-11T09:35:02;102208.88;;;16.24;61.19
62942;BME280;49042;47.318;19.874;2022-11-11T09:38:04;102208.63;;;15.70;63.09
62942;BME280;49042;47.318;19.874;2022-11-11T09:41:09;102198.00;;;14.37;70.42
62942;BME280;49042;47.318;19.874;2022-11-11T09:50:47;102203.50;;;13.26;74.00
62942;BME280;49042;47.318;19.874;2022-11-11T09:53:58;102201.31;;;13.36;74.00
62942;BME280;49042;47.318;19.874;2022-11-11T09:57:02;102197.88;;;13.94;70.96
62942;BME280;49042;47.318;19.874;2022-11-11T10:00:08;102211.12;;;13.58;71.49
62942;BME280;49042;47.318;19.874;2022-11-11T10:03:21;102208.75;;;13.63;71.52
62942;BME280;49042;47.318;19.874;2022-11-11T10:06:25;102204.00;;;13.74;71.06
62942;BME280;49042;47.318;19.874;2022-11-11T10:09:30;102206.09;;;12.90;75.96
62942;BME280;49042;47.318;19.874;2022-11-11T10:12:37;102217.13;;;13.74;72.53
62942;BME280;49042;47.318;19.874;2022-11-11T10:16:08;102213.13;;;14.22;70.88
62942;BME280;49042;47.318;19.874;2022-11-11T10:22:19;102205.09;;;15.02;66.51
62942;BME280;49042;47.318;19.874;2022-11-11T10:25:21;102204.81;;;14.94;66.89
62942;BME280;49042;47.318;19.874;2022-11-11T10:28:25;102191.44;;;14.68;68.19
62942;BME280;49042;47.318;19.874;2022-11-11T10:31:28;102182.87;;;14.11;70.10
62942;BME280;49042;47.318;19.874;2022-11-11T10:34:31;102178.69;;;14.56;68.68
62942;BME280;49042;47.318;19.874;2022-11-11T10:37:36;102168.34;;;14.59;69.20
62942;BME280;49042;47.318;19.874;2022-11-11T10:40:40;102166.69;;;15.04;67.47
62942;BME280;49042;47.318;19.874;2022-11-11T10:43:46;102161.69;;;15.58;66.29
62942;BME280;49042;47.318;19.874;2022-11-11T10:50:32;102165.25;;;15.36;66.36
62942;BME280;49042;47.318;19.874;2022-11-11T10:56:44;102150.19;;;14.65;64.84
62942;BME280;49042;47.318;19.874;2022-11-11T10:59:52;102147.12;;;14.97;65.67
62942;BME280;49042;47.318;19.874;2022-11-11T11:02:58;102135.06;;;14.60;68.27
62942;BME280;49042;47.318;19.874;2022-11-11T11:12:11;102126.94;;;14.75;66.84
62942;BME280;49042;47.318;19.874;2022-11-11T11:15:16;102119.03;;;14.52;68.33
62942;BME280;49042;47.318;19.874;2022-11-11T11:18:18;102115.94;;;14.84;67.96
62942;BME280;49042;47.318;19.874;2022-11-11T11:21:20;102121.69;;;14.75;69.59
62942;BME280;49042;47.318;19.874;2022-11-11T11:24:23;102114.63;;;14.74;68.36
62942;BME280;49042;47.318;19.874;2022-11-11T11:27:25;102116.50;;;14.55;69.17
62942;BME280;49042;47.318;19.874;2022-11-11T11:30:27;102115.31;;;14.05;71.43
62942;BME280;49042;47.318;19.874;2022-11-11T11:33:48;102115.91;;;13.99;72.02
62942;BME280;49042;47.318;19.874;2022-11-11T11:36:59;102121.41;;;13.84;73.20
62942;BME280;49042;47.318;19.874;2022-11-11T11:40:05;102108.97;;;13.80;74.38
62942;BME280;49042;47.318;19.874;2022-11-11T11:43:23;102112.03;;;13.69;73.89
62942;BME280;49042;47.318;19.874;2022-11-11T11:46:37;102112.69;;;13.85;74.08
62942;BME280;49042;47.318;19.874;2022-11-11T11:50:03;102111.19;;;13.70;75.74
62942;BME280;49042;47.318;19.874;2022-11-11T12:05:33;102128.25;;;14.22;74.94
62942;BME280;49042;47.318;19.874;2022-11-11T12:21:31;102132.78;;;14.05;76.04
62942;BME280;49042;47.318;19.874;2022-11-11T12:27:53;102126.22;;;14.79;74.39
62942;BME280;49042;47.318;19.874;2022-11-11T12:34:19;102120.06;;;14.35;76.20
62942;BME280;49042;47.318;19.874;2022-11-11T12:37:50;102112.91;;;14.31;76.36
62942;BME280;49042;47.318;19.874;2022-11-11T12:44:03;102112.09;;;14.32;76.83
62942;BME280;49042;47.318;19.874;2022-11-11T12:47:18;102114.50;;;14.28;76.00
62942;BME280;49042;47.318;19.874;2022-11-11T12:50:24;102112.53;;;14.43;73.34
62942;BME280;49042;47.318;19.874;2022-11-11T12:53:32;102114.25;;;14.43;72.72
62942;BME280;49042;47.318;19.874;2022-11-11T12:57:40;102110.44;;;14.34;72.03
62942;BME280;49042;47.318;19.874;2022-11-11T13:00:11;102110.25;;;14.51;69.34
62942;BME280;49042;47.318;19.874;2022-11-11T13:03:22;102107.66;;;14.31;67.07
62942;BME280;49042;47.318;19.874;2022-11-11T13:06:42;102100.22;;;14.42;69.37
62942;BME280;49042;47.318;19.874;2022-11-11T13:16:01;102089.09;;;14.27;67.85
62942;BME280;49042;47.318;19.874;2022-11-11T13:19:11;102090.16;;;14.10;68.65
62942;BME280;49042;47.318;19.874;2022-11-11T13:25:23;102078.59;;;14.05;70.15
62942;BME280;49042;47.318;19.874;2022-11-11T13:28:27;102074.28;;;14.07;70.21
62942;BME280;49042;47.318;19.874;2022-11-11T13:31:34;102070.50;;;14.00;71.06
62942;BME280;49042;47.318;19.874;2022-11-11T13:34:36;102083.44;;;14.17;70.40
62942;BME280;49042;47.318;19.874;2022-11-11T13:37:38;102098.41;;;13.98;68.72
62942;BME280;49042;47.318;19.874;2022-11-11T13:40:41;102090.41;;;13.75;66.11
62942;BME280;49042;47.318;19.874;2022-11-11T13:43:45;102097.06;;;13.67;67.29
62942;BME280;49042;47.318;19.874;2022-11-11T13:46:49;102101.41;;;13.48;68.42
62942;BME280;49042;47.318;19.874;2022-11-11T13:50:02;102102.22;;;13.27;69.70
62942;BME280;49042;47.318;19.874;2022-11-11T13:53:05;102103.03;;;13.26;70.96
62942;BME280;49042;47.318;19.874;2022-11-11T13:56:07;102097.91;;;13.09;71.44
62942;BME280;49042;47.318;19.874;2022-11-11T13:59:19;102090.84;;;13.26;71.70
62942;BME280;49042;47.318;19.874;2022-11-11T14:05:24;102097.53;;;13.01;73.31
62942;BME280;49042;47.318;19.874;2022-11-11T14:09:12;102098.19;;;12.97;74.27
62942;BME280;49042;47.318;19.874;2022-11-11T14:11:50;102098.91;;;12.93;74.44
62942;BME280;49042;47.318;19.874;2022-11-11T14:18:36;102102.62;;;12.80;76.24
62942;BME280;49042;47.318;19.874;2022-11-11T14:25:17;102093.88;;;12.79;76.95
62942;BME280;49042;47.318;19.874;2022-11-11T14:28:25;102080.44;;;12.71;78.12
62942;BME280;49042;47.318;19.874;2022-11-11T14:44:43;102048.56;;;12.08;83.41
62942;BME280;49042;47.318;19.874;2022-11-11T14:47:44;102048.06;;;11.99;83.77
62942;BME280;49042;47.318;19.874;2022-11-11T14:50:46;102045.16;;;11.93;84.74
62942;BME280;49042;47.318;19.874;2022-11-11T14:53:48;102045.47;;;11.99;84.90
62942;BME280;49042;47.318;19.874;2022-11-11T14:56:54;102053.81;;;11.92;85.24
62942;BME280;49042;47.318;19.874;2022-11-11T15:00:08;102055.00;;;11.98;85.05
62942;BME280;49042;47.318;19.874;2022-11-11T15:03:20;102045.06;;;11.91;85.85
62942;BME280;49042;47.318;19.874;2022-11-11T15:06:27;102050.31;;;11.57;88.59
62942;BME280;49042;47.318;19.874;2022-11-11T15:15:55;102074.31;;;11.33;89.20
62942;BME280;49042;47.318;19.874;2022-11-11T15:38:28;102079.91;;;10.60;92.61
62942;BME280;49042;47.318;19.874;2022-11-11T15:41:33;102086.38;;;10.52;93.94
62942;BME280;49042;47.318;19.874;2022-11-11T15:44:36;102082.50;;;10.60;92.32
62942;BME280;49042;47.318;19.874;2022-11-11T15:47:37;102089.88;;;10.37;93.17
62942;BME280;49042;47.318;19.874;2022-11-11T15:50:39;102094.28;;;10.38;93.27
62942;BME280;49042;47.318;19.874;2022-11-11T15:53:41;102097.87;;;10.25;94.07
62942;BME280;49042;47.318;19.874;2022-11-11T15:56:42;102103.41;;;10.01;96.35
62942;BME280;49042;47.318;19.874;2022-11-11T15:59:43;102099.91;;;10.01;95.95
62942;BME280;49042;47.318;19.874;2022-11-11T16:02:45;102098.06;;;10.13;94.53
62942;BME280;49042;47.318;19.874;2022-11-11T16:05:46;102094.97;;;10.05;94.72
62942;BME280;49042;47.318;19.874;2022-11-11T16:08:49;102096.41;;;10.00;95.12
62942;BME280;49042;47.318;19.874;2022-11-11T16:11:52;102086.56;;;9.81;96.05
62942;BME280;49042;47.318;19.874;2022-11-11T16:14:55;102082.34;;;9.83;95.55
62942;BME280;49042;47.318;19.874;2022-11-11T16:17:59;102089.97;;;9.64;96.23
62942;BME280;49042;47.318;19.874;2022-11-11T16:21:09;102083.72;;;9.62;96.01
62942;BME280;49042;47.318;19.874;2022-11-11T16:24:32;102075.91;;;9.62;95.23
62942;BME280;49042;47.318;19.874;2022-11-11T16:27:35;102082.88;;;9.48;96.75
62942;BME280;49042;47.318;19.874;2022-11-11T16:30:38;102072.16;;;9.43;96.97
62942;BME280;49042;47.318;19.874;2022-11-11T16:33:39;102072.28;;;9.45;96.95
62942;BME280;49042;47.318;19.874;2022-11-11T16:36:57;102085.94;;;9.27;98.29
62942;BME280;49042;47.318;19.874;2022-11-11T16:40:23;102090.16;;;9.25;98.57
62942;BME280;49042;47.318;19.874;2022-11-11T16:43:21;102102.50;;;9.01;100.00
62942;BME280;49042;47.318;19.874;2022-11-11T16:49:36;102091.19;;;9.00;100.00
62942;BME280;49042;47.318;19.874;2022-11-11T16:55:59;102090.16;;;8.98;100.00
62942;BME280;49042;47.318;19.874;2022-11-11T16:59:09;102108.31;;;8.83;100.00
62942;BME280;49042;47.318;19.874;2022-11-11T17:02:14;102106.09;;;8.62;100.00
62942;BME280;49042;47.318;19.874;2022-11-11T17:05:16;102101.19;;;8.66;100.00
62942;BME280;49042;47.318;19.874;2022-11-11T17:11:54;102087.06;;;8.63;100.00
62942;BME280;49042;47.318;19.874;2022-11-11T17:14:56;102079.78;;;8.71;100.00
62942;BME280;49042;47.318;19.874;2022-11-11T17:17:58;102080.09;;;8.62;100.00
62942;BME280;49042;47.318;19.874;2022-11-11T17:21:01;102071.47;;;8.63;100.00
62942;BME280;49042;47.318;19.874;2022-11-11T17:24:03;102074.66;;;8.59;100.00
62942;BME280;49042;47.318;19.874;2022-11-11T17:27:05;102072.66;;;8.54;100.00
62942;BME280;49042;47.318;19.874;2022-11-11T17:30:07;102076.25;;;8.56;100.00
62942;BME280;49042;47.318;19.874;2022-11-11T17:33:09;102064.84;;;8.41;100.00
62942;BME280;49042;47.318;19.874;2022-11-11T17:36:11;102071.94;;;8.43;100.00
62942;BME280;49042;47.318;19.874;2022-11-11T17:39:12;102074.81;;;8.48;100.00
62942;BME280;49042;47.318;19.874;2022-11-11T17:42:14;102069.53;;;8.33;100.00
62942;BME280;49042;47.318;19.874;2022-11-11T17:45:16;102071.81;;;8.28;100.00
62942;BME280;49042;47.318;19.874;2022-11-11T17:48:17;102066.12;;;7.95;100.00
62942;BME280;49042;47.318;19.874;2022-11-11T17:51:19;102056.41;;;7.92;100.00
62942;BME280;49042;47.318;19.874;2022-11-11T17:54:20;102059.38;;;8.10;100.00
62942;BME280;49042;47.318;19.874;2022-11-11T17:57:23;102056.13;;;7.87;100.00
62942;BME280;49042;47.318;19.874;2022-11-11T18:00:25;102049.59;;;7.80;100.00
62942;BME280;49042;47.318;19.874;2022-11-11T18:03:28;102046.81;;;7.77;100.00
62942;BME280;49042;47.318;19.874;2022-11-11T18:06:30;102038.94;;;7.64;100.00